• Join FlightAware (Why Join?)
  • Login
  • US Flag 
05:42AM EDT


 

Airport Tracker/Info


-or-


 

Live Flight TrackerFlight Track Log ✈ N129UP ✈ 11-Apr-2013 ✈ KSDF - KMHT

Flight Track Log - Related Links

Times and Time Zones

All times are in EDT time to prevent confusion due to time zone crossing. See the N129UP flight status page for this flight to view local times or setup timezone preferences in your user account.

Time Position Orientation Groundspeed Altitude Reporting Facility
EDT Latitude Longitude Course Direction KTS MPH feet Rate Location/Type
05:04PM 38.1640 -85.7410 165° South 176 203 1,000  Level FlightAware
05:04PM 38.1360 -85.7320 166° South 180 207 2,600 2,160 Climbing FlightAware
05:05PM 38.1140 -85.7310 178° South 217 250 3,200 1,620 Climbing FlightAware
05:05PM 38.0810 -85.7130 157° South 277 319 4,100 1,980 Climbing FlightAware
05:05PM 38.0760 -85.6930 108° East 286 329 4,700 1,800 Climbing FlightAware
05:06PM 38.0730 -85.6450 95° East 314 361 5,300 1,200 Climbing FlightAware
05:06PM 38.0730 -85.6380 90° East 315 362 5,300  Level FlightAware
05:07PM 38.0740 -85.5660 89° East 311 358 5,300 1,080 Level FlightAware
05:07PM 38.0740 -85.5090 90° East 313 360 6,600 3,300 Climbing FlightAware
05:08PM 38.0730 -85.4370 91° East 299 344 9,200 3,060 Climbing FlightAware
05:08PM 38.0730 -85.3680 90° East 302 348 10,700 2,460 Climbing FlightAware
05:09PM 38.0700 -85.2830 93° East 324 373 12,700 2,580 Climbing FlightAware
05:10PM 38.0620 -85.2090 98° East 335 386 14,400 2,520 Climbing FlightAware
05:10PM 38.0510 -85.1320 100° East 351 404 16,100 1,740 Climbing FlightAware
05:11PM 38.0370 -85.0350 100° East 392 451 16,900 1,080 Climbing FlightAware
05:12PM 38.0260 -84.9390 98° East 430 495 17,700 1,500 Climbing FlightAware
05:13PM 38.0110 -84.8220 99° East 448 516 19,100 1,920 Climbing FlightAware
05:13PM 37.9980 -84.7190 99° East 459 528 20,500 1,800 Climbing FlightAware
05:14PM 37.9850 -84.6100 99° East 476 548 21,500 1,500 Climbing FlightAware
05:15PM 37.9770 -84.4490 94° East 509 586 22,900 1,740 Climbing FlightAware
05:16PM 37.9910 -84.3110 83° East 521 600 24,400 1,920 Climbing FlightAware
05:16PM 38.0100 -84.1910 79° East 523 602 25,700 2,040 Climbing FlightAware
05:17PM 38.0310 -84.0590 79° East 518 596 27,300 2,040 Climbing FlightAware
05:18PM 38.0430 -83.9760 80° East 513 590 28,300 1,800 Climbing FlightAware
05:19PM 38.0700 -83.7960 79° East 511 588 30,000 1,620 Climbing FlightAware
05:19PM 38.0870 -83.6810 79° East 509 586 31,000 660 Climbing FlightAware
05:20PM 38.1070 -83.5440 79° East 505 581 31,000  Level FlightAware
05:21PM 38.1240 -83.4250 80° East 497 572 31,000  Level FlightAware
05:21PM 38.1380 -83.3310 79° East 495 570 31,000  Level FlightAware
05:22PM 38.1550 -83.2150 79° East 496 571 31,000  Level FlightAware
05:23PM 38.1700 -83.1180 79° East 496 571 31,000  Level FlightAware
05:23PM 38.1890 -82.9960 79° East 496 571 31,000  Level FlightAware
05:24PM 38.2040 -82.8990 79° East 496 571 31,000  Level FlightAware
05:25PM 38.2190 -82.8010 79° East 496 571 31,000  Level FlightAware
05:25PM 38.2390 -82.6020 83° East 506 582 31,000  Level FlightAware
05:26PM 38.2560 -82.4840 80° East 506 582 31,000  Level FlightAware
05:27PM 38.2730 -82.3590 80° East 506 582 31,000  Level FlightAware
05:28PM 38.2870 -82.2590 80° East 506 582 31,000  Level FlightAware
05:28PM 38.3010 -82.1600 80° East 506 582 31,000  Level FlightAware
05:29PM 38.3140 -82.0600 81° East 506 582 31,000  Level FlightAware
05:30PM 38.3280 -81.9600 80° East 506 582 31,000  Level FlightAware
05:30PM 38.3460 -81.8350 80° East 506 582 31,000  Level FlightAware
05:31PM 38.3590 -81.7350 81° East 506 582 31,000  Level FlightAware
05:32PM 38.3730 -81.6350 80° East 506 582 31,000  Level FlightAware
05:32PM 38.3870 -81.5350 80° East 506 582 31,000  Level FlightAware
05:33PM 38.4010 -81.4350 80° East 506 582 31,000  Level FlightAware
05:34PM 38.4180 -81.3100 80° East 506 582 31,000  Level FlightAware
05:35PM 38.4320 -81.2100 80° East 506 582 31,000  Level FlightAware
05:35PM 38.4460 -81.1100 80° East 506 582 31,000  Level FlightAware
05:36PM 38.8970 -80.9850 12° North 515 593 31,000  Level FlightAware
05:36PM 38.9510 -80.9080 48° Northeast 515 593 31,000  Level FlightAware
05:37PM 39.0060 -80.8310 47° Northeast 515 593 31,000  Level FlightAware
05:38PM 39.0600 -80.7530 48° Northeast 515 593 31,000  Level FlightAware
05:39PM 39.1280 -80.6560 48° Northeast 515 593 31,000  Level FlightAware
05:39PM 39.1820 -80.5780 48° Northeast 515 593 31,000  Level FlightAware
05:40PM 39.2360 -80.5010 48° Northeast 515 593 31,000  Level FlightAware
05:41PM 39.2900 -80.4230 48° Northeast 515 593 31,000  Level FlightAware
05:41PM 39.4330 -80.2300 46° Northeast 508 585 31,000  Level FlightAware
05:42PM 39.4950 -80.1410 48° Northeast 508 585 31,000  Level FlightAware
05:43PM 39.6130 -79.9700 48° Northeast 507 583 31,000  Level FlightAware
05:44PM 39.6640 -79.8970 48° Northeast 507 583 31,000  Level FlightAware
05:45PM 39.7560 -79.7590 49° Northeast 514 592 31,000  Level FlightAware
05:46PM 39.8280 -79.6550 48° Northeast 510 587 31,000  Level FlightAware
05:46PM 39.8940 -79.5550 49° Northeast 507 583 31,000  Level FlightAware
05:47PM 39.9600 -79.4570 49° Northeast 506 582 31,000  Level FlightAware
05:48PM 40.0260 -79.3580 49° Northeast 507 583 31,000  Level FlightAware
05:48PM 40.0850 -79.2700 49° Northeast 509 586 31,000  Level FlightAware
05:49PM 40.1700 -79.1410 49° Northeast 509 586 31,000  Level FlightAware
05:50PM 40.2580 -79.0080 49° Northeast 504 580 31,000  Level FlightAware
05:51PM 40.3180 -78.9180 49° Northeast 502 578 31,000  Level FlightAware
05:52PM 40.3810 -78.8230 49° Northeast 509 586 31,000  Level FlightAware
05:52PM 40.4531 -78.7119 49° Northeast 505 581 31,000  Level New York Center
05:53PM 40.5461 -78.5694 49° Northeast 512 589 31,000  Level New York Center
05:54PM 40.6364 -78.4292 50° Northeast 512 589 31,000  Level New York Center
05:55PM 40.7269 -78.2886 50° Northeast 507 583 31,000  Level New York Center
05:56PM 40.8169 -78.1478 50° Northeast 507 583 31,000  Level New York Center
05:57PM 40.9000 -78.0167 50° Northeast 507 583 31,000  Level New York Center
05:58PM 40.9742 -77.8622 58° Northeast 507 583 31,000  Level New York Center
05:59PM 41.0481 -77.7019 59° Northeast 507 583 31,000  Level New York Center
06:00PM 41.1181 -77.5383 60° Northeast 502 578 31,000  Level New York Center
06:06PM 41.5300 -76.5930 60° Northeast 514 592 31,000  Level FlightAware
06:06PM 41.5629 -76.5170 60° Northeast 515 593 31,000  Level FlightAware ADS-B
06:07PM 41.6048 -76.4176 61° Northeast 515 593 31,000  Level FlightAware ADS-B
06:08PM 41.6543 -76.3011 60° Northeast 517 595 31,000  Level FlightAware ADS-B
06:08PM 41.6904 -76.2177 60° Northeast 516 594 31,000  Level FlightAware ADS-B
06:09PM 41.7270 -76.1288 61° Northeast 516 594 31,000  Level FlightAware ADS-B
06:09PM 41.7624 -76.0454 60° Northeast 516 594 31,000  Level FlightAware ADS-B
06:10PM 41.8060 -75.9400 61° Northeast 513 590 31,000  Level FlightAware
06:10PM 41.8136 -75.9231 59° Northeast 514 592 31,000  Level FlightAware ADS-B
06:12PM 41.9290 -75.6460 61° Northeast 516 594 31,000  Level FlightAware
06:12PM 41.9730 -75.5380 61° Northeast 517 595 31,000  Level FlightAware
06:13PM 42.0130 -75.4420 61° Northeast 517 595 31,000  Level FlightAware
06:14PM 42.0760 -75.2880 61° Northeast 522 601 31,000  Level FlightAware
06:14PM 42.1310 -75.1690 58° Northeast 521 600 31,000  Level FlightAware
06:15PM 42.1890 -75.0460 57° Northeast 521 600 31,000  Level FlightAware
06:16PM 42.2530 -74.9060 58° Northeast 521 600 31,000  Level FlightAware
06:17PM 42.3200 -74.7590 58° Northeast 521 600 31,000 -360 Level FlightAware
06:18PM 42.3970 -74.5910 58° Northeast 505 581 30,400 -1,200 Descending FlightAware
06:19PM 42.4490 -74.4710 60° Northeast 499 574 29,000 -1,380 Descending FlightAware
06:19PM 42.4700 -74.3700 74° East 523 602 28,700 -1,380 Descending FlightAware
06:20PM 42.5000 -74.1780 78° East 508 585 26,900 -1,920 Descending FlightAware
06:21PM 42.5240 -74.0350 77° East 509 586 25,400 -2,100 Descending FlightAware
06:22PM 42.5440 -73.9110 78° East 507 583 24,000 -1,980 Descending FlightAware
06:22PM 42.5650 -73.7810 78° East 502 578 22,600 -1,920 Descending FlightAware
06:23PM 42.5850 -73.6560 78° East 492 566 21,300 -1,980 Descending FlightAware
06:24PM 42.6030 -73.5370 78° East 478 550 20,000 -600 Descending FlightAware
06:24PM 42.5770 -73.7070 258° West 19,100 -300 Descending FlightAware
06:26PM 42.6510 -73.2350 78° East 19,000 -60 Descending FlightAware
06:27PM 42.6880 -72.9980 78° East 456 525 19,000  Level FlightAware
06:28PM 42.7230 -72.8760 69° East 439 505 19,000 -180 Level FlightAware
06:28PM 42.7480 -72.7910 68° East 444 511 18,800 -600 Descending FlightAware
06:29PM 42.7560 -72.7060 83° East 437 503 18,000 -1,260 Descending FlightAware
06:30PM 42.7600 -72.6840 76° East 434 499 16,600 -2,520 Descending FlightAware
06:31PM 42.7840 -72.4090 83° East 431 496 14,700 -3,420 Descending FlightAware
06:32PM 42.7940 -72.2790 84° East 431 496 11,800 -2,220 Descending FlightAware
06:32PM 42.8020 -72.1940 83° East 431 496 11,800 -1,200 Level FlightAware
06:33PM 42.8110 -72.0610 85° East 346 398 10,100 -1,800 Descending FlightAware
06:33PM 42.8130 -72.0080 87° East 347 399 9,400 -1,380 Descending FlightAware
06:34PM 42.8120 -71.9840 93° East 345 397 9,200 -1,800 Descending FlightAware
06:34PM 42.8080 -71.9150 94° East 341 392 8,200 -1,740 Descending FlightAware
06:35PM 42.8060 -71.8600 93° East 331 381 7,500 -1,440 Descending FlightAware
06:35PM 42.8040 -71.8020 93° East 304 350 6,900 -1,680 Descending FlightAware
06:36PM 42.8000 -71.7460 96° East 288 331 6,000 -1,920 Descending FlightAware
06:36PM 42.7970 -71.6950 95° East 278 320 5,000 -1,860 Descending FlightAware
06:36PM 42.7930 -71.6500 97° East 269 310 4,300 -1,680 Descending FlightAware
06:37PM 42.7880 -71.6020 98° East 259 298 3,500 -1,200 Descending FlightAware
06:38PM 42.7890 -71.5370 89° East 239 275 2,900 -540 Descending FlightAware
06:38PM 42.7910 -71.4940 86° East 225 259 2,900 -120 Level FlightAware
06:39PM 42.7970 -71.4610 76° East 207 238 2,800 -600 Descending FlightAware
06:39PM 42.8030 -71.4220 78° East 188 216 2,400 -420 Descending FlightAware
06:40PM 42.8080 -71.3880 79° East 178 205 2,400  Level FlightAware
06:40PM 42.8140 -71.3730 61° Northeast 167 192 2,400  Level FlightAware
06:40PM 42.8200 -71.3680 31° Northeast 172 198 2,400 -960 Level FlightAware
06:40PM 42.8320 -71.3710 350° North 176 203 2,000 -1,440 Descending FlightAware
06:40PM 42.8410 -71.3800 324° Northwest 158 182 1,700 -1,020 Descending FlightAware
06:41PM 42.8510 -71.3860 336° Northwest 140 161 1,500 -480 Descending FlightAware
06:41PM 42.8640 -71.3940 336° Northwest 113 130 1,400 -480 Descending FlightAware
06:42PM 42.8780 -71.4020 337° Northwest 111 128 1,100 -720 Descending FlightAware
06:42PM 42.8950 -71.4120 337° Northwest 111 128 700 -780 Descending FlightAware
06:43PM 42.9080 -71.4200 336° Northwest 123 142 400 -720 Descending FlightAware
06:43PM 42.9210 -71.4270 338° Northwest 112 129 100 -360 Descending FlightAware
06:43PM 42.9310 -71.4340 333° Northwest 112 129 100 240 Level FlightAware
06:44PM 42.9400 -71.4417 333° Northwest 123 142 300 14,520 Climbing Boston Center
06:45PM 42.9714 -71.4611 336° Northwest 123 142 19,000 9,240 Climbing Boston Center
06:46PM 43.0028 -71.4833 333° Northwest 123 142 19,000  Level Boston Center
06:47PM 43.0342 -71.5028 336° Northwest 123 142 19,000  Level Boston Center
06:49PM 42.9328 -71.4358 156° South  Level Estimated
06:56PM 42.9328 -71.4358 156° South  Level Estimated
06:57PM 42.9328 -71.4358 156° South  Level Estimated
06:58PM 42.9328 -71.4358 156° South  Level Estimated
06:59PM 42.9328 -71.4358 156° South  Level Estimated